createdAt,value
2022-10-18T00:00:05.856Z,7.97
2022-10-18T00:02:32.408Z,8.25
2022-10-18T00:04:58.892Z,8.47
2022-10-18T00:07:25.350Z,7.82
2022-10-18T00:09:51.796Z,8.55
2022-10-18T00:12:18.285Z,8.07
2022-10-18T00:14:44.765Z,7.75
2022-10-18T00:17:11.200Z,7.23
2022-10-18T00:19:37.622Z,7.10
2022-10-18T00:22:04.283Z,6.97
2022-10-18T00:24:30.771Z,7.00
2022-10-18T00:26:57.214Z,6.45
2022-10-18T00:29:23.688Z,6.10
2022-10-18T00:31:50.115Z,6.35
2022-10-18T00:34:16.866Z,6.28
2022-10-18T00:36:45.117Z,5.07
2022-10-18T00:39:17.434Z,4.07
2022-10-18T00:41:44.355Z,3.90
2022-10-18T00:44:10.695Z,3.33
2022-10-18T00:46:39.601Z,3.10
2022-10-18T00:49:19.955Z,2.90
2022-10-18T00:51:49.287Z,2.75
2022-10-18T00:54:16.820Z,2.60
2022-10-18T00:56:44.876Z,2.60
2022-10-18T00:59:12.416Z,2.80
2022-10-18T01:01:38.967Z,2.88
2022-10-18T01:04:05.526Z,2.80
2022-10-18T01:06:32.631Z,2.60
2022-10-18T01:09:12.894Z,2.78
2022-10-18T01:12:04.213Z,2.80
2022-10-18T01:14:45.423Z,2.58
2022-10-18T01:17:55.269Z,2.65
2022-10-18T01:20:43.387Z,2.73
2022-10-18T01:23:19.291Z,2.67
2022-10-18T01:26:07.517Z,2.65
2022-10-18T01:29:03.381Z,2.70
2022-10-18T01:31:54.279Z,2.60
2022-10-18T01:34:25.860Z,2.30
2022-10-18T01:36:54.181Z,2.47
2022-10-18T01:39:28.157Z,2.30
2022-10-18T01:41:56.432Z,2.47
2022-10-18T01:44:25.189Z,2.25
2022-10-18T01:46:53.529Z,1.97
2022-10-18T01:49:20.007Z,2.22
2022-10-18T01:51:46.551Z,2.15
2022-10-18T01:54:17.453Z,2.30
2022-10-18T01:57:01.318Z,2.17
2022-10-18T01:59:39.436Z,2.37
2022-10-18T02:02:17.994Z,2.15
2022-10-18T02:04:52.095Z,2.10
2022-10-18T02:07:32.941Z,2.33
2022-10-18T02:10:09.158Z,2.20
2022-10-18T02:12:37.514Z,2.20
2022-10-18T02:15:05.391Z,2.25
2022-10-18T02:17:32.339Z,2.20
2022-10-18T02:20:00.254Z,2.30
2022-10-18T02:22:29.830Z,2.17
2022-10-18T02:24:57.633Z,2.13
2022-10-18T02:27:24.099Z,2.20
2022-10-18T02:29:50.884Z,2.28
2022-10-18T02:32:35.171Z,2.40
2022-10-18T02:35:07.877Z,2.17
2022-10-18T02:37:38.100Z,2.33
2022-10-18T02:40:07.165Z,2.00
2022-10-18T02:42:38.982Z,1.90
2022-10-18T02:45:06.556Z,2.00
2022-10-18T02:47:33.250Z,1.90
2022-10-18T02:49:59.949Z,1.77
2022-10-18T02:52:26.371Z,1.80
2022-10-18T02:54:52.794Z,1.90
2022-10-18T02:57:19.301Z,1.42
2022-10-18T02:59:45.735Z,1.70
2022-10-18T03:02:12.184Z,1.50
2022-10-18T03:04:38.687Z,1.55
2022-10-18T03:07:05.141Z,1.55
2022-10-18T03:09:31.631Z,1.50
2022-10-18T03:11:58.100Z,1.90
2022-10-18T03:14:24.583Z,1.70
2022-10-18T03:16:51.042Z,1.63
2022-10-18T03:19:17.490Z,1.67
2022-10-18T03:21:43.919Z,1.30
2022-10-18T03:24:10.389Z,1.35
2022-10-18T03:26:36.849Z,1.47
2022-10-18T03:29:04.622Z,1.48
2022-10-18T03:34:02.774Z,1.50
2022-10-18T03:36:29.200Z,1.80
2022-10-18T03:38:55.657Z,1.70
2022-10-18T03:41:22.224Z,1.33
2022-10-18T03:43:48.661Z,1.75
2022-10-18T03:46:15.085Z,1.40
2022-10-18T03:48:41.585Z,1.85
2022-10-18T03:51:08.023Z,1.60
2022-10-18T03:53:34.456Z,1.65
2022-10-18T03:56:00.946Z,1.67
2022-10-18T03:58:27.461Z,1.90
2022-10-18T04:00:54.904Z,1.60
2022-10-18T04:03:22.256Z,2.00
2022-10-18T04:05:49.697Z,1.60
2022-10-18T04:08:16.374Z,1.55
2022-10-18T04:10:43.438Z,1.50
2022-10-18T04:13:09.985Z,1.67
2022-10-18T04:15:36.500Z,1.70
2022-10-18T04:18:03.137Z,1.75
2022-10-18T04:20:29.568Z,1.60
2022-10-18T04:22:57.614Z,1.80
2022-10-18T04:25:24.923Z,1.80
2022-10-18T04:27:51.520Z,1.67
2022-10-18T04:30:20.698Z,1.60
2022-10-18T04:32:47.367Z,1.67
2022-10-18T04:35:13.816Z,1.70
2022-10-18T04:37:40.345Z,1.92
2022-10-18T04:40:07.371Z,2.00
2022-10-18T04:42:33.794Z,2.20
2022-10-18T04:45:00.272Z,2.20
2022-10-18T04:47:26.804Z,2.00
2022-10-18T04:49:53.226Z,1.80
2022-10-18T04:52:20.195Z,2.10
2022-10-18T04:54:46.675Z,1.80
2022-10-18T04:57:13.858Z,2.17
2022-10-18T04:59:40.301Z,1.60
2022-10-18T05:02:06.781Z,2.10
2022-10-18T05:04:33.321Z,1.80
2022-10-18T05:06:59.837Z,2.00
2022-10-18T05:09:26.477Z,2.30
2022-10-18T05:11:52.932Z,2.25
2022-10-18T05:14:19.431Z,2.60
2022-10-18T05:16:45.902Z,2.00
2022-10-18T05:19:12.402Z,2.10
2022-10-18T05:21:38.840Z,1.95
2022-10-18T05:24:05.512Z,2.28
2022-10-18T05:26:31.987Z,2.17
2022-10-18T05:28:58.708Z,2.47
2022-10-18T05:31:25.199Z,2.45
2022-10-18T05:33:51.672Z,2.90
2022-10-18T05:36:18.106Z,2.70
2022-10-18T05:38:45.530Z,2.35
2022-10-18T05:41:12.567Z,2.10
2022-10-18T05:43:39.906Z,2.20
2022-10-18T05:46:13.467Z,2.30
2022-10-18T05:48:41.606Z,2.33
2022-10-18T05:51:08.405Z,2.53
2022-10-18T05:53:37.200Z,2.83
2022-10-18T05:56:04.939Z,2.70
2022-10-18T05:58:31.386Z,2.58
2022-10-18T06:01:02.210Z,2.20
2022-10-18T06:03:30.950Z,2.30
2022-10-18T06:06:09.384Z,2.50
2022-10-18T06:08:36.711Z,2.70
2022-10-18T06:11:11.504Z,2.35
2022-10-18T06:13:45.920Z,2.08
2022-10-18T06:16:13.787Z,2.65
2022-10-18T06:18:43.163Z,2.50
2022-10-18T06:21:10.124Z,2.67
2022-10-18T06:23:36.587Z,2.40
2022-10-18T06:26:06.027Z,2.70
2022-10-18T06:28:34.612Z,2.92
2022-10-18T06:31:01.176Z,2.50
2022-10-18T06:33:27.618Z,2.78
2022-10-18T06:35:58.893Z,2.85
2022-10-18T06:38:26.038Z,2.88
2022-10-18T06:40:52.871Z,2.88
2022-10-18T06:43:21.516Z,2.93
2022-10-18T06:45:48.774Z,2.78
2022-10-18T06:48:15.828Z,2.85
2022-10-18T06:50:42.530Z,3.00
2022-10-18T06:53:09.735Z,3.10
2022-10-18T06:55:36.264Z,2.90
2022-10-18T06:58:02.737Z,3.30
2022-10-18T07:00:29.244Z,2.90
2022-10-18T07:02:57.163Z,2.75
2022-10-18T07:05:23.724Z,2.70
2022-10-18T07:07:54.177Z,2.77
2022-10-18T07:10:23.413Z,2.50
2022-10-18T07:12:51.535Z,2.45
2022-10-18T07:15:18.159Z,2.20
2022-10-18T07:17:47.869Z,2.70
2022-10-18T07:20:17.029Z,2.50
2022-10-18T07:22:43.544Z,3.13
2022-10-18T07:25:09.970Z,2.38
2022-10-18T07:27:41.729Z,2.70
2022-10-18T07:30:10.007Z,2.25
2022-10-18T07:32:36.816Z,2.50
2022-10-18T07:35:03.679Z,2.60
2022-10-18T07:37:30.412Z,3.13
2022-10-18T07:39:56.886Z,2.28
2022-10-18T07:42:23.422Z,2.40
2022-10-18T07:44:49.895Z,2.20
2022-10-18T07:47:16.344Z,2.30
2022-10-18T07:49:42.782Z,2.65
2022-10-18T07:52:09.256Z,2.63
2022-10-18T07:54:35.760Z,2.40
2022-10-18T07:57:04.222Z,2.40
2022-10-18T07:59:30.705Z,2.22
2022-10-18T08:01:57.179Z,2.15
2022-10-18T08:04:23.645Z,2.40
2022-10-18T08:06:50.137Z,2.65
2022-10-18T08:09:16.571Z,2.00
2022-10-18T08:11:43.063Z,1.95
2022-10-18T08:14:09.501Z,2.75
2022-10-18T08:16:35.944Z,2.38
2022-10-18T08:19:02.682Z,2.38
2022-10-18T08:21:29.151Z,2.10
2022-10-18T08:23:55.632Z,2.40
2022-10-18T08:26:22.908Z,2.20
2022-10-18T08:29:03.616Z,2.70
2022-10-18T08:31:36.312Z,2.75
2022-10-18T08:34:02.782Z,2.10
2022-10-18T08:36:29.289Z,2.20
2022-10-18T08:38:55.713Z,2.53
2022-10-18T08:41:31.004Z,2.30
2022-10-18T08:44:07.430Z,2.25
2022-10-18T08:46:36.089Z,2.10
2022-10-18T08:49:03.568Z,2.15
2022-10-18T08:51:35.735Z,2.38
2022-10-18T08:54:06.726Z,2.30
2022-10-18T08:56:33.989Z,2.33
2022-10-18T08:59:02.705Z,2.27
2022-10-18T09:01:42.981Z,2.00
2022-10-18T09:04:37.174Z,2.00
2022-10-18T09:07:28.425Z,1.95
2022-10-18T09:10:02.224Z,2.08
2022-10-18T09:12:50.454Z,2.13
2022-10-18T09:15:44.905Z,2.50
2022-10-18T09:18:27.263Z,2.40
2022-10-18T09:20:54.596Z,2.50
2022-10-18T09:23:23.136Z,2.22
2022-10-18T09:26:03.362Z,2.10
2022-10-18T09:28:45.092Z,2.20
2022-10-18T09:31:29.111Z,2.10
2022-10-18T09:34:05.662Z,2.00
2022-10-18T09:36:37.821Z,2.63
2022-10-18T09:39:30.961Z,2.30
2022-10-18T09:42:05.991Z,2.75
2022-10-18T09:44:42.107Z,2.40
2022-10-18T09:47:16.871Z,1.77
2022-10-18T09:49:46.372Z,2.00
2022-10-18T09:52:19.842Z,1.90
2022-10-18T09:55:01.431Z,1.70
2022-10-18T09:57:29.848Z,1.50
2022-10-18T09:59:57.883Z,1.58
2022-10-18T10:02:24.569Z,1.45
2022-10-18T10:04:51.978Z,1.60
2022-10-18T10:07:21.962Z,1.75
2022-10-18T10:09:59.915Z,1.60
2022-10-18T10:12:28.824Z,1.58
2022-10-18T10:14:55.576Z,1.85
2022-10-18T10:17:26.481Z,1.47
2022-10-18T10:20:17.621Z,1.40
2022-10-18T10:22:46.699Z,1.50
2022-10-18T10:25:31.968Z,1.50
2022-10-18T10:28:37.392Z,2.00
2022-10-18T10:31:19.152Z,1.80
2022-10-18T10:33:47.555Z,1.63
2022-10-18T10:36:19.420Z,1.60
2022-10-18T10:38:45.886Z,1.90
2022-10-18T10:41:20.426Z,1.58
2022-10-18T10:43:47.218Z,1.70
2022-10-18T10:46:15.544Z,1.25
2022-10-18T10:48:50.440Z,1.42
2022-10-18T10:51:34.610Z,1.45
2022-10-18T10:54:15.127Z,1.85
2022-10-18T10:57:11.262Z,1.60
2022-10-18T10:59:57.329Z,1.60
2022-10-18T11:02:31.628Z,1.35
2022-10-18T11:05:19.691Z,1.60
2022-10-18T11:07:46.571Z,1.30
2022-10-18T11:10:18.836Z,1.10
2022-10-18T11:12:46.719Z,1.90
2022-10-18T11:15:28.687Z,1.63
2022-10-18T11:18:14.657Z,1.58
2022-10-18T11:20:45.484Z,1.60
2022-10-18T11:23:13.920Z,1.40
2022-10-18T11:25:49.115Z,1.23
2022-10-18T11:28:51.156Z,1.92
2022-10-18T11:31:29.489Z,1.17
2022-10-18T11:34:14.989Z,4.57
2022-10-18T11:37:28.182Z,1.70
2022-10-18T11:40:25.826Z,1.50
2022-10-18T11:43:08.930Z,1.45
2022-10-18T11:45:45.027Z,1.40
2022-10-18T11:48:49.213Z,1.70
2022-10-18T11:51:34.080Z,1.43
2022-10-18T11:54:14.560Z,1.63
2022-10-18T11:56:42.986Z,1.40
2022-10-18T11:59:41.713Z,1.58
2022-10-18T12:02:24.926Z,1.90
2022-10-18T12:05:18.879Z,1.93
2022-10-18T12:07:52.804Z,1.30
2022-10-18T12:10:31.417Z,1.40
2022-10-18T12:13:08.462Z,1.40
2022-10-18T12:15:37.648Z,1.52
2022-10-18T12:18:17.662Z,1.40
2022-10-18T12:20:49.856Z,1.67
2022-10-18T12:23:36.973Z,1.60
2022-10-18T12:26:07.018Z,1.65
2022-10-18T12:29:10.984Z,1.55
2022-10-18T12:31:42.313Z,1.60
2022-10-18T12:34:31.362Z,1.50
2022-10-18T12:37:14.636Z,1.50
2022-10-18T12:40:20.241Z,1.70
2022-10-18T12:42:48.460Z,2.10
2022-10-18T12:45:35.698Z,1.70
2022-10-18T12:48:06.067Z,1.48
2022-10-18T12:50:38.744Z,1.50
2022-10-18T12:53:22.720Z,1.70
2022-10-18T12:55:51.560Z,1.70
2022-10-18T12:58:21.007Z,1.80
2022-10-18T13:00:47.915Z,1.42
2022-10-18T13:03:16.526Z,1.90
2022-10-18T13:05:54.678Z,2.15
2022-10-18T13:08:27.947Z,1.73
2022-10-18T13:11:12.782Z,1.70
2022-10-18T13:13:45.046Z,1.90
2022-10-18T13:16:52.860Z,1.83
2022-10-18T13:19:30.736Z,1.63
2022-10-18T13:22:19.089Z,2.58
2022-10-18T13:24:55.949Z,1.57
2022-10-18T13:27:37.544Z,1.90
2022-10-18T13:30:34.308Z,2.08
2022-10-18T13:33:15.590Z,1.98
2022-10-18T13:35:48.132Z,2.58
2022-10-18T13:38:32.883Z,1.93
2022-10-18T13:43:58.331Z,1.85
2022-10-18T13:46:44.954Z,1.77
2022-10-18T13:49:17.515Z,2.10
2022-10-18T13:51:55.431Z,2.37
2022-10-18T13:54:39.043Z,2.35
2022-10-18T13:57:17.473Z,2.00
2022-10-18T13:59:53.703Z,2.40
2022-10-18T14:02:58.669Z,2.50
2022-10-18T14:06:11.666Z,2.63
2022-10-18T14:09:25.477Z,2.63
2022-10-18T14:12:09.868Z,2.42
2022-10-18T14:14:51.513Z,2.42
2022-10-18T14:17:42.832Z,2.33
2022-10-18T14:20:34.594Z,2.60
2022-10-18T14:23:47.972Z,2.03
2022-10-18T14:26:19.862Z,2.67
2022-10-18T14:29:04.239Z,2.20
2022-10-18T14:31:30.797Z,2.30
2022-10-18T14:33:58.598Z,2.00
2022-10-18T14:36:31.362Z,1.90
2022-10-18T14:39:00.384Z,1.98
2022-10-18T14:41:28.882Z,2.10
2022-10-18T14:44:14.010Z,2.10
2022-10-18T14:46:48.976Z,2.20
2022-10-18T14:49:16.143Z,2.20
2022-10-18T14:51:43.699Z,2.10
2022-10-18T14:54:18.277Z,2.05
2022-10-18T14:56:45.053Z,2.17
2022-10-18T14:59:17.057Z,2.20
2022-10-18T15:02:01.672Z,2.75
2022-10-18T15:04:33.014Z,2.17
2022-10-18T15:07:01.937Z,1.80
2022-10-18T15:12:02.610Z,1.90
2022-10-18T15:14:29.555Z,2.22
2022-10-18T15:17:03.031Z,2.53
2022-10-18T15:19:35.712Z,2.10
2022-10-18T15:22:30.940Z,2.00
2022-10-18T15:25:05.939Z,1.93
2022-10-18T15:27:36.288Z,2.40
2022-10-18T15:30:17.061Z,2.05
2022-10-18T15:32:51.902Z,2.40
2022-10-18T15:35:32.626Z,1.77
2022-10-18T15:38:14.379Z,2.40
2022-10-18T15:40:41.591Z,2.33
2022-10-18T15:43:23.357Z,2.45
2022-10-18T15:45:54.096Z,2.60
2022-10-18T15:48:30.626Z,3.03
2022-10-18T15:51:09.061Z,2.80
2022-10-18T15:53:42.705Z,3.10
2022-10-18T15:56:44.812Z,3.42
2022-10-18T15:59:38.600Z,3.05
2022-10-18T16:02:11.774Z,3.42
2022-10-18T16:04:38.225Z,3.10
2022-10-18T16:07:04.674Z,3.80
2022-10-18T16:09:31.116Z,4.13
2022-10-18T16:11:58.425Z,3.22
2022-10-18T16:14:26.354Z,3.70
2022-10-18T16:16:54.962Z,3.43
2022-10-18T16:19:22.820Z,2.80
2022-10-18T16:21:50.619Z,2.88
2022-10-18T16:24:17.345Z,3.33
2022-10-18T16:26:43.798Z,2.97
2022-10-18T16:29:13.911Z,3.07
2022-10-18T16:31:40.503Z,2.70
2022-10-18T16:34:10.684Z,3.20
2022-10-18T16:36:38.387Z,3.38
2022-10-18T16:39:09.379Z,3.10
2022-10-18T16:41:35.867Z,2.87
2022-10-18T16:44:02.328Z,2.88
2022-10-18T16:46:30.749Z,2.92
2022-10-18T16:48:57.435Z,2.67
2022-10-18T16:51:24.304Z,2.83
2022-10-18T16:53:51.108Z,3.00
2022-10-18T16:56:19.954Z,3.30
2022-10-18T16:58:47.359Z,3.30
2022-10-18T17:01:16.458Z,3.00
2022-10-18T17:03:43.650Z,2.95
2022-10-18T17:06:22.557Z,3.00
2022-10-18T17:08:50.837Z,2.97
2022-10-18T17:11:17.834Z,3.30
2022-10-18T17:13:44.590Z,3.40
2022-10-18T17:16:31.759Z,3.20
2022-10-18T17:19:01.275Z,2.87
2022-10-18T17:21:28.698Z,2.97
2022-10-18T17:23:55.284Z,3.10
2022-10-18T17:26:28.734Z,2.92
2022-10-18T17:28:59.415Z,3.22
2022-10-18T17:31:26.008Z,2.37
2022-10-18T17:33:54.670Z,2.75
2022-10-18T17:36:21.616Z,2.67
2022-10-18T17:38:51.936Z,2.40
2022-10-18T17:41:18.680Z,2.90
2022-10-18T17:43:47.632Z,2.27
2022-10-18T17:46:16.318Z,2.58
2022-10-18T17:48:43.123Z,3.15
2022-10-18T17:51:10.974Z,3.25
2022-10-18T17:53:37.637Z,2.47
2022-10-18T17:56:05.185Z,2.93
2022-10-18T17:58:32.263Z,3.05
2022-10-18T18:01:11.702Z,2.75
2022-10-18T18:03:38.531Z,3.00
2022-10-18T18:06:33.721Z,2.58
2022-10-18T18:09:04.872Z,2.80
2022-10-18T18:11:31.356Z,3.08
2022-10-18T18:13:58.618Z,2.83
2022-10-18T18:16:27.588Z,2.63
2022-10-18T18:18:56.167Z,3.20
2022-10-18T18:21:23.322Z,3.13
2022-10-18T18:23:50.570Z,3.78
2022-10-18T18:26:17.958Z,2.92
2022-10-18T18:28:44.587Z,3.53
2022-10-18T18:31:19.682Z,3.30
2022-10-18T18:33:46.460Z,2.90
2022-10-18T18:36:13.030Z,2.92
2022-10-18T18:38:42.370Z,3.45
2022-10-18T18:41:28.416Z,2.85
2022-10-18T18:44:01.809Z,3.03
2022-10-18T18:46:30.076Z,3.17
2022-10-18T18:48:57.673Z,3.25
2022-10-18T18:51:27.150Z,3.13
2022-10-18T18:53:53.706Z,3.10
2022-10-18T18:56:22.993Z,2.90
2022-10-18T18:58:49.698Z,3.20
2022-10-18T19:01:17.387Z,3.10
2022-10-18T19:03:44.874Z,3.38
2022-10-18T19:06:15.718Z,3.22
2022-10-18T19:08:44.918Z,3.15
2022-10-18T19:11:21.889Z,3.03
2022-10-18T19:13:49.053Z,4.15
2022-10-18T19:16:27.463Z,3.28
2022-10-18T19:19:01.004Z,3.22
2022-10-18T19:21:29.720Z,3.10
2022-10-18T19:23:57.519Z,3.27
2022-10-18T19:26:25.980Z,3.35
2022-10-18T19:28:52.544Z,3.95
2022-10-18T19:31:19.371Z,3.35
2022-10-18T19:33:55.598Z,3.83
2022-10-18T19:36:25.393Z,3.00
2022-10-18T19:38:51.999Z,3.17
2022-10-18T19:41:18.871Z,3.28
2022-10-18T19:43:45.355Z,3.08
2022-10-18T19:46:13.150Z,2.80
2022-10-18T19:48:39.711Z,3.10
2022-10-18T19:51:09.375Z,3.30
2022-10-18T19:53:36.501Z,2.65
2022-10-18T19:56:04.656Z,2.95
2022-10-18T19:58:31.474Z,3.10
2022-10-18T20:00:58.157Z,2.40
2022-10-18T20:03:25.012Z,3.38
2022-10-18T20:05:56.449Z,2.67
2022-10-18T20:08:23.762Z,2.60
2022-10-18T20:10:50.469Z,3.00
2022-10-18T20:13:17.079Z,3.10
2022-10-18T20:15:47.738Z,2.88
2022-10-18T20:18:14.558Z,3.20
2022-10-18T20:20:44.523Z,2.70
2022-10-18T20:23:14.403Z,3.03
2022-10-18T20:25:41.014Z,3.20
2022-10-18T20:28:07.534Z,2.90
2022-10-18T20:30:34.119Z,3.50
2022-10-18T20:33:00.600Z,3.80
2022-10-18T20:35:27.176Z,2.72
2022-10-18T20:37:53.629Z,2.87
2022-10-18T20:40:20.083Z,2.97
2022-10-18T20:42:46.548Z,2.72
2022-10-18T20:45:13.094Z,2.25
2022-10-18T20:47:39.525Z,3.00
2022-10-18T20:50:06.511Z,2.80
2022-10-18T20:52:33.008Z,2.58
2022-10-18T20:54:59.439Z,2.85
2022-10-18T20:57:25.987Z,2.80
2022-10-18T20:59:52.429Z,3.08
2022-10-18T21:02:18.863Z,2.80
2022-10-18T21:04:45.300Z,2.70
2022-10-18T21:07:11.752Z,2.20
2022-10-18T21:09:38.174Z,2.40
2022-10-18T21:12:04.964Z,2.97
2022-10-18T21:14:31.449Z,2.63
2022-10-18T21:16:57.898Z,2.55
2022-10-18T21:19:26.595Z,2.88
2022-10-18T21:21:57.343Z,3.03
2022-10-18T21:24:24.634Z,2.50
2022-10-18T21:26:51.219Z,2.50
2022-10-18T21:29:22.002Z,2.42
2022-10-18T21:31:49.710Z,2.50
2022-10-18T21:34:17.493Z,2.40
2022-10-18T21:36:46.243Z,2.72
2022-10-18T21:39:15.318Z,2.60
2022-10-18T21:41:45.178Z,2.20
2022-10-18T21:44:12.094Z,2.30
2022-10-18T21:46:39.615Z,2.45
2022-10-18T21:49:07.016Z,2.08
2022-10-18T21:51:33.493Z,2.50
2022-10-18T21:53:59.994Z,2.17
2022-10-18T21:56:28.756Z,1.95
2022-10-18T21:58:55.450Z,2.40
2022-10-18T22:01:33.515Z,2.22
2022-10-18T22:04:01.285Z,1.80
2022-10-18T22:06:30.237Z,2.30
2022-10-18T22:08:58.949Z,2.38
2022-10-18T22:11:29.528Z,2.00
2022-10-18T22:13:56.458Z,1.80
2022-10-18T22:16:23.602Z,2.00
2022-10-18T22:18:50.683Z,2.00
2022-10-18T22:21:18.744Z,2.15
2022-10-18T22:23:47.339Z,1.60
2022-10-18T22:26:20.477Z,2.00
2022-10-18T22:28:47.086Z,1.63
2022-10-18T22:31:18.947Z,1.70
2022-10-18T22:33:45.628Z,1.60
2022-10-18T22:36:12.856Z,1.63
2022-10-18T22:38:39.759Z,1.90
2022-10-18T22:41:07.880Z,1.73
2022-10-18T22:43:34.712Z,1.55
2022-10-18T22:46:09.798Z,1.50
2022-10-18T22:48:36.422Z,1.23
2022-10-18T22:51:03.494Z,2.10
2022-10-18T22:53:30.175Z,1.40
2022-10-18T22:55:56.640Z,1.70
2022-10-18T22:58:23.402Z,1.40
2022-10-18T23:00:50.267Z,1.02
2022-10-18T23:03:17.906Z,1.42
2022-10-18T23:05:46.048Z,1.20
2022-10-18T23:08:14.027Z,1.00
2022-10-18T23:10:41.727Z,1.20
2022-10-18T23:13:08.861Z,1.00
2022-10-18T23:15:35.726Z,1.10
2022-10-18T23:18:02.218Z,0.87
2022-10-18T23:20:28.672Z,0.93
2022-10-18T23:22:55.414Z,1.20
2022-10-18T23:25:21.951Z,1.45
2022-10-18T23:27:49.524Z,1.00
2022-10-18T23:30:17.815Z,0.83
2022-10-18T23:32:44.249Z,1.27
2022-10-18T23:35:10.713Z,1.00
2022-10-18T23:37:37.409Z,1.13
2022-10-18T23:40:04.407Z,1.17
2022-10-18T23:42:30.835Z,0.90
2022-10-18T23:44:57.289Z,0.80
2022-10-18T23:47:23.760Z,0.80
2022-10-18T23:49:50.215Z,1.00
2022-10-18T23:52:17.019Z,0.88
2022-10-18T23:57:10.780Z,1.08
2022-10-18T23:59:37.279Z,0.60
